Time;durP1;ratioP1;P1;durP2;ratioP2;P2;SDS_P1;SDS_P2;PMS_P1;PMS_P2;Temp;Humidity;BMP_temperature;BMP_pressure;BME280_temperature;BME280_humidity;BME280_pressure;Samples;Min_cycle;Max_cycle;Signal;HPM_P1;HPM_P2
2021/05/27 00:00:12;;;;;;;0.40;0.40;;;;;;;10.65;69.69;96690.53;4955577;28;20490;-81
2021/05/27 00:02:42;;;;;;;0.85;0.50;;;;;;;10.66;70.49;96691.31;4954960;28;20054;-82
2021/05/27 00:05:11;;;;;;;0.52;0.47;;;;;;;10.63;69.75;96694.31;4955786;28;20055;-82
2021/05/27 00:07:39;;;;;;;0.50;0.50;;;;;;;10.61;69.11;96688.47;4955928;28;20059;-81
2021/05/27 00:10:09;;;;;;;0.50;0.50;;;;;;;10.60;69.25;96694.66;4955855;28;20055;-82
2021/05/27 00:12:37;;;;;;;1.20;0.35;;;;;;;10.57;69.72;96693.22;4956066;28;20051;-82
2021/05/27 00:15:08;;;;;;;0.50;0.50;;;;;;;10.57;70.22;96692.41;4955737;28;20509;-82
2021/05/27 00:17:36;;;;;;;0.75;0.65;;;;;;;10.57;70.17;96690.59;4955863;29;20493;-82
2021/05/27 00:20:07;;;;;;;2.90;0.60;;;;;;;10.56;70.41;96685.56;4955273;28;20051;-82
2021/05/27 00:22:36;;;;;;;0.60;0.60;;;;;;;10.53;70.10;96697.16;4955212;29;20568;-82
2021/05/27 00:25:04;;;;;;;0.60;0.45;;;;;;;10.54;69.77;96704.00;4955799;28;20083;-81
2021/05/27 00:27:40;;;;;;;1.08;0.60;;;;;;;10.54;69.83;96708.41;4955285;29;20086;-82
2021/05/27 00:30:08;;;;;;;0.65;0.63;;;;;;;10.53;69.55;96702.38;4955119;28;20047;-81
2021/05/27 00:32:36;;;;;;;0.43;0.43;;;;;;;10.53;70.54;96712.81;4955116;28;20090;-82
2021/05/27 00:35:06;;;;;;;0.60;0.60;;;;;;;10.52;69.90;96708.59;4954823;28;20512;-81
2021/05/27 00:37:35;;;;;;;0.73;0.70;;;;;;;10.51;69.89;96705.16;4955353;29;20502;-82
2021/05/27 00:40:04;;;;;;;0.70;0.50;;;;;;;10.51;69.45;96699.13;4955317;28;20498;-82
2021/05/27 00:42:33;;;;;;;0.40;0.40;;;;;;;10.49;69.51;96694.13;4955193;28;20047;-81
2021/05/27 00:45:03;;;;;;;1.30;0.70;;;;;;;10.48;69.97;96694.28;4954745;28;20074;-82
2021/05/27 00:47:31;;;;;;;0.73;0.68;;;;;;;10.49;69.97;96699.34;4955016;29;20051;-81
2021/05/27 00:50:00;;;;;;;1.85;0.70;;;;;;;10.49;70.06;96707.16;4955207;28;20051;-82
2021/05/27 00:52:28;;;;;;;1.17;0.80;;;;;;;10.48;69.78;96709.94;4955116;28;20078;-82
2021/05/27 00:54:58;;;;;;;0.55;0.55;;;;;;;10.46;69.46;96701.47;4955142;28;20074;-82
2021/05/27 00:57:32;;;;;;;0.68;0.68;;;;;;;10.44;70.22;96706.88;4955268;29;20051;-82
2021/05/27 01:00:01;;;;;;;2.08;1.00;;;;;;;10.44;70.39;96706.06;4957099;28;20413;-82
2021/05/27 01:02:29;;;;;;;0.65;0.65;;;;;;;10.42;70.07;96705.44;4958191;28;20114;-81
2021/05/27 01:04:57;;;;;;;0.82;0.63;;;;;;;10.43;70.29;96705.25;4958512;28;20081;-82
2021/05/27 01:07:25;;;;;;;2.58;1.30;;;;;;;10.42;71.11;96705.44;4958260;28;20122;-82
2021/05/27 01:09:54;;;;;;;0.75;0.65;;;;;;;10.41;70.44;96709.03;4963526;28;20086;-82
2021/05/27 01:12:23;;;;;;;1.27;0.98;;;;;;;10.40;70.20;96713.41;4959624;28;20051;-82
2021/05/27 01:17:37;;;;;;;6.38;0.88;;;;;;;10.42;70.73;96710.66;4958308;29;20484;-82
2021/05/27 01:20:08;;;;;;;0.77;0.50;;;;;;;10.41;70.50;96709.03;4958075;28;20055;-81
2021/05/27 01:22:37;;;;;;;0.57;0.50;;;;;;;10.41;70.00;96701.22;4958211;28;20047;-82
2021/05/27 01:25:07;;;;;;;0.98;0.90;;;;;;;10.41;69.79;96704.63;4958242;28;20178;-82
2021/05/27 01:27:36;;;;;;;2.20;0.70;;;;;;;10.41;70.63;96709.03;4958355;29;20122;-82
2021/05/27 01:30:08;;;;;;;1.27;0.70;;;;;;;10.41;70.91;96709.03;4958379;28;20505;-82
2021/05/27 01:32:36;;;;;;;0.88;0.68;;;;;;;10.41;70.13;96716.88;4962847;28;20059;-81
2021/05/27 01:35:06;;;;;;;1.60;0.80;;;;;;;10.40;69.82;96723.06;4966557;28;20047;-81
2021/05/27 01:37:38;;;;;;;1.27;0.88;;;;;;;10.40;69.64;96716.03;4958913;29;20059;-82
2021/05/27 01:40:08;;;;;;;2.03;0.73;;;;;;;10.40;69.69;96715.22;4967852;29;20072;-82
2021/05/27 01:42:36;;;;;;;1.25;0.63;;;;;;;10.41;70.33;96714.25;4980235;28;20058;-82
2021/05/27 01:45:04;;;;;;;1.25;1.00;;;;;;;10.43;70.24;96723.50;4980006;28;20079;-82
2021/05/27 01:47:32;;;;;;;0.60;0.60;;;;;;;10.45;69.50;96725.94;4975977;28;20114;-82
2021/05/27 01:50:01;;;;;;;3.20;0.77;;;;;;;10.44;70.47;96719.91;4961119;28;20078;-82
2021/05/27 01:52:29;;;;;;;1.02;0.73;;;;;;;10.44;69.88;96719.09;4960691;28;20075;-82
2021/05/27 01:54:58;;;;;;;1.20;0.80;;;;;;;10.43;70.00;96717.47;4959977;28;20063;-82
2021/05/27 01:57:26;;;;;;;0.77;0.77;;;;;;;10.43;70.50;96717.47;4972572;28;20055;-82
2021/05/27 01:59:54;;;;;;;2.28;0.73;;;;;;;10.44;69.37;96713.88;4977720;28;20071;-82
2021/05/27 02:02:22;;;;;;;0.75;0.70;;;;;;;10.42;70.09;96721.88;4966710;28;20051;-82
2021/05/27 02:04:50;;;;;;;0.80;0.80;;;;;;;10.43;69.77;96723.50;4959437;28;20561;-82
2021/05/27 02:07:18;;;;;;;0.88;0.82;;;;;;;10.44;70.13;96727.72;4959772;28;20506;-82
2021/05/27 02:09:46;;;;;;;1.27;0.90;;;;;;;10.47;69.85;96734.38;4959433;28;20051;-82
2021/05/27 02:12:15;;;;;;;0.95;0.93;;;;;;;10.46;70.27;96727.56;4963335;28;20047;-82
2021/05/27 02:14:43;;;;;;;2.58;1.17;;;;;;;10.45;69.41;96723.31;4959995;28;20141;-82
2021/05/27 02:17:14;;;;;;;2.65;0.90;;;;;;;10.45;69.83;96731.13;4960555;28;20054;-82
2021/05/27 02:19:42;;;;;;;1.25;0.80;;;;;;;10.47;69.64;96734.38;4958585;29;20078;-82
2021/05/27 02:22:10;;;;;;;0.98;0.88;;;;;;;10.46;69.67;96735.38;4959660;28;20114;-82
2021/05/27 02:24:38;;;;;;;1.10;0.80;;;;;;;10.46;69.79;96743.22;4960246;28;20055;-82
2021/05/27 02:27:06;;;;;;;1.58;0.70;;;;;;;10.47;69.77;96735.22;4960020;28;20051;-82
2021/05/27 02:29:36;;;;;;;0.88;0.68;;;;;;;10.48;70.78;96731.59;4959079;28;20058;-82
2021/05/27 02:32:04;;;;;;;1.70;0.90;;;;;;;10.49;69.42;96733.25;4959008;28;20058;-82
2021/05/27 02:34:32;;;;;;;0.93;0.77;;;;;;;10.49;69.75;96727.19;4960498;28;20066;-82
2021/05/27 02:37:01;;;;;;;0.82;0.80;;;;;;;10.51;69.67;96730.44;4959409;28;20549;-82
2021/05/27 02:39:29;;;;;;;1.60;1.30;;;;;;;10.50;69.06;96726.22;4957971;28;20082;-82
2021/05/27 02:41:57;;;;;;;1.00;0.85;;;;;;;10.51;69.17;96738.25;4959342;28;20493;-82
2021/05/27 02:44:25;;;;;;;0.70;0.70;;;;;;;10.50;68.67;96728.84;4960805;28;20131;-82
2021/05/27 02:46:54;;;;;;;0.68;0.68;;;;;;;10.47;68.87;96734.38;4958733;28;20055;-82
2021/05/27 02:49:23;;;;;;;1.73;1.05;;;;;;;10.45;69.09;96734.59;4958676;28;20051;-82
2021/05/27 02:51:51;;;;;;;1.40;1.02;;;;;;;10.46;69.30;96743.22;4958985;28;20146;-82
2021/05/27 02:54:19;;;;;;;1.25;0.93;;;;;;;10.47;69.71;96729.16;4959374;28;20082;-82
2021/05/27 02:56:47;;;;;;;0.80;0.80;;;;;;;10.47;69.90;96734.38;4958335;28;20047;-82
2021/05/27 02:59:15;;;;;;;1.23;1.10;;;;;;;10.48;69.50;96736.81;4960314;28;20051;-82
2021/05/27 03:04:15;;;;;;;1.65;1.00;;;;;;;10.46;69.66;96732.78;4932947;29;20059;-76
2021/05/27 03:06:42;;;;;;;3.35;1.13;;;;;;;10.45;69.20;96733.75;4936047;29;20122;-76
2021/05/27 03:09:09;;;;;;;1.70;1.15;;;;;;;10.43;69.28;96738.34;4935925;29;20048;-76
2021/05/27 03:11:36;;;;;;;0.90;0.73;;;;;;;10.43;69.80;96738.34;4935707;29;20054;-76
2021/05/27 03:14:04;;;;;;;1.15;1.05;;;;;;;10.43;69.59;96736.56;4935367;29;20047;-75
2021/05/27 03:16:31;;;;;;;2.38;0.93;;;;;;;10.44;69.60;96740.78;4935617;29;20051;-77
2021/05/27 03:18:58;;;;;;;3.78;1.52;;;;;;;10.46;69.52;96738.78;4935852;29;20055;-77
2021/05/27 03:21:26;;;;;;;1.27;0.93;;;;;;;10.47;69.97;96737.00;4935693;29;20411;-76
2021/05/27 03:23:53;;;;;;;1.42;0.80;;;;;;;10.47;69.96;96731.78;4934547;29;20422;-76
2021/05/27 03:26:20;;;;;;;1.70;1.60;;;;;;;10.49;69.74;96732.41;4935625;29;20047;-76
2021/05/27 03:28:47;;;;;;;1.13;1.02;;;;;;;10.48;69.46;96736.81;4935701;29;20047;-76
2021/05/27 03:31:14;;;;;;;1.67;1.52;;;;;;;10.48;69.77;96736.81;4935361;29;20051;-76
2021/05/27 03:33:41;;;;;;;1.48;1.20;;;;;;;10.47;69.39;96739.59;4935269;29;20059;-76
2021/05/27 03:36:08;;;;;;;1.02;0.93;;;;;;;10.48;70.04;96744.66;4944702;29;20052;-77
2021/05/27 03:38:35;;;;;;;0.80;0.75;;;;;;;10.49;69.88;96742.84;4945013;29;20047;-76
2021/05/27 03:41:03;;;;;;;1.35;1.20;;;;;;;10.48;69.11;96741.25;4938053;29;20690;-78
2021/05/27 03:43:30;;;;;;;3.25;1.25;;;;;;;10.48;69.49;96751.66;4935546;29;20123;-77
2021/05/27 03:45:58;;;;;;;1.58;1.20;;;;;;;10.50;69.68;96757.53;4936529;29;20052;-77
2021/05/27 03:48:25;;;;;;;1.10;1.00;;;;;;;10.51;69.21;96751.31;4942460;29;20051;-76
2021/05/27 03:50:52;;;;;;;1.90;1.10;;;;;;;10.50;69.16;96745.28;4939967;29;20051;-77
2021/05/27 03:53:19;;;;;;;1.20;1.20;;;;;;;10.51;69.34;96740.88;4935702;29;20059;-76
2021/05/27 03:55:47;;;;;;;2.05;1.00;;;;;;;10.52;69.23;96742.50;4936111;29;20491;-76
2021/05/27 04:01:00;;;;;;;1.70;1.60;;;;;;;10.49;69.72;96741.06;4935248;29;20058;-77
2021/05/27 04:03:27;;;;;;;2.42;1.38;;;;;;;10.50;70.04;96745.28;4934744;29;20051;-76
2021/05/27 04:08:38;;;;;;;1.63;1.20;;;;;;;10.55;70.00;96736.13;4950937;29;20055;-76
2021/05/27 04:11:06;;;;;;;1.17;1.08;;;;;;;10.55;69.94;96731.72;4950952;29;20044;-76
2021/05/27 04:13:33;;;;;;;1.55;1.20;;;;;;;10.55;69.33;96739.53;4944391;29;20097;-76
2021/05/27 04:16:00;;;;;;;1.10;1.00;;;;;;;10.57;69.41;96742.78;4935783;29;20059;-76
2021/05/27 04:18:28;;;;;;;1.67;1.25;;;;;;;10.57;69.62;96740.16;4935100;29;20052;-76
2021/05/27 04:20:55;;;;;;;1.20;1.10;;;;;;;10.56;69.48;96745.56;4934994;29;20051;-76
2021/05/27 04:23:35;;;;;;;2.53;1.20;;;;;;;10.56;70.07;96749.00;4934556;29;20055;-76
2021/05/27 04:26:03;;;;;;;1.73;1.40;;;;;;;10.57;69.98;96752.41;4934911;29;20498;-76
2021/05/27 04:28:32;;;;;;;4.13;1.80;;;;;;;10.56;69.96;96751.59;4934889;29;20052;-76
2021/05/27 04:31:08;;;;;;;2.10;1.70;;;;;;;10.58;70.15;96757.41;4934859;29;20051;-76
2021/05/27 04:33:36;;;;;;;4.03;1.42;;;;;;;10.60;69.92;96758.06;4934532;29;20129;-76
2021/05/27 04:36:03;;;;;;;4.45;1.33;;;;;;;10.63;70.35;96764.75;4938680;29;20047;-76
2021/05/27 04:38:30;;;;;;;1.35;1.15;;;;;;;10.67;70.11;96755.53;4938513;29;20051;-76
2021/05/27 04:40:57;;;;;;;1.70;1.60;;;;;;;10.70;70.51;96761.22;4938545;29;20426;-77
2021/05/27 04:43:24;;;;;;;3.75;2.17;;;;;;;10.75;70.26;96765.09;4938018;29;20059;-76
2021/05/27 04:45:52;;;;;;;4.63;2.00;;;;;;;10.77;70.14;96760.53;4938679;29;20130;-77
2021/05/27 04:48:19;;;;;;;1.60;1.50;;;;;;;10.79;69.79;96763.75;4938451;29;20066;-78
2021/05/27 04:50:49;;;;;;;2.90;1.80;;;;;;;10.81;69.38;96773.03;4938350;29;20059;-77
2021/05/27 04:53:17;;;;;;;2.28;1.63;;;;;;;10.83;69.52;96771.06;4938064;29;20051;-77
2021/05/27 04:55:45;;;;;;;2.40;2.00;;;;;;;10.89;69.39;96779.97;4938308;29;20052;-76
2021/05/27 04:58:12;;;;;;;2.35;2.00;;;;;;;10.92;69.09;96769.16;4937936;29;20048;-76
2021/05/27 05:00:39;;;;;;;1.90;1.70;;;;;;;10.94;69.08;96777.63;4938015;29;20048;-76
2021/05/27 05:03:07;;;;;;;5.45;2.53;;;;;;;10.95;68.80;96788.88;4937688;29;20051;-77
2021/05/27 05:05:36;;;;;;;2.35;2.15;;;;;;;10.95;68.42;96774.00;4938226;29;20051;-78
2021/05/27 05:08:04;;;;;;;3.90;2.08;;;;;;;10.95;68.95;96779.22;4938680;29;20131;-72
2021/05/27 05:10:31;;;;;;;3.05;1.85;;;;;;;10.96;69.43;96778.25;4937652;29;20054;-72
2021/05/27 05:12:59;;;;;;;2.75;1.85;;;;;;;10.94;69.02;96775.03;4937272;29;20062;-77
2021/05/27 05:15:27;;;;;;;1.90;1.50;;;;;;;10.93;70.04;96786.44;4930270;29;20463;-78
2021/05/27 05:17:56;;;;;;;1.80;1.40;;;;;;;10.93;69.41;96796.88;4938183;29;20502;-77
2021/05/27 05:20:26;;;;;;;1.40;1.30;;;;;;;10.89;68.23;96803.47;4937997;29;20520;-76
2021/05/27 05:22:55;;;;;;;2.42;1.30;;;;;;;10.89;68.48;96806.06;4937293;29;20493;-78
2021/05/27 05:25:23;;;;;;;1.88;1.50;;;;;;;10.90;68.55;96807.69;4939583;29;20058;-77
2021/05/27 05:27:51;;;;;;;2.33;1.20;;;;;;;10.90;68.51;96800.66;4938242;29;20445;-78
2021/05/27 05:30:19;;;;;;;1.00;0.95;;;;;;;10.90;68.66;96807.69;4947038;29;20047;-79
2021/05/27 05:32:47;;;;;;;1.70;1.15;;;;;;;10.90;68.56;96818.13;4947871;29;20047;-77
2021/05/27 05:35:16;;;;;;;2.53;1.80;;;;;;;10.92;68.40;96813.53;4946748;29;20049;-78
2021/05/27 05:37:45;;;;;;;2.22;1.08;;;;;;;10.96;68.21;96814.00;4941586;29;20059;-78
2021/05/27 05:40:13;;;;;;;2.58;1.00;;;;;;;10.97;67.49;96823.44;4937532;29;20047;-77
2021/05/27 05:42:42;;;;;;;5.32;0.80;;;;;;;10.96;67.56;96819.22;4937621;29;20143;-76
2021/05/27 05:45:12;;;;;;;2.15;1.10;;;;;;;10.95;67.77;96825.41;4936865;29;20082;-78
2021/05/27 05:47:40;;;;;;;1.15;1.05;;;;;;;10.95;67.27;96826.22;4937314;29;20059;-79
2021/05/27 05:50:09;;;;;;;1.55;1.15;;;;;;;10.93;67.13;96823.81;4938289;29;20119;-78
2021/05/27 05:52:36;;;;;;;1.65;1.20;;;;;;;10.89;66.70;96832.97;4937063;29;20059;-79
2021/05/27 05:55:06;;;;;;;2.30;1.10;;;;;;;10.85;67.64;96842.16;4937231;29;20067;-79
2021/05/27 05:57:38;;;;;;;1.83;1.10;;;;;;;10.88;68.60;96835.75;4935531;29;20055;-80
2021/05/27 06:00:06;;;;;;;;;;;;;;;10.92;68.21;96837.81;4937980;29;20051;-80
2021/05/27 06:02:33;;;;;;;1.20;1.10;;;;;;;10.95;67.58;96835.84;4937365;28;19939;-79
2021/05/27 06:05:00;;;;;;;3.45;1.30;;;;;;;10.93;67.06;96834.25;4936963;29;20052;-80
2021/05/27 06:07:27;;;;;;;2.40;1.20;;;;;;;10.96;67.29;96832.28;4936687;29;20069;-78
2021/05/27 06:09:54;;;;;;;1.20;1.08;;;;;;;10.99;67.46;96835.31;4937103;29;20052;-80
2021/05/27 06:12:23;;;;;;;1.08;1.00;;;;;;;11.02;67.43;96837.59;4936898;29;20051;-79
2021/05/27 06:14:50;;;;;;;2.03;1.10;;;;;;;11.05;67.65;96833.81;4936004;29;20062;-77
2021/05/27 06:17:17;;;;;;;1.35;1.25;;;;;;;11.11;67.53;96840.94;4936777;29;20052;-78
2021/05/27 06:19:44;;;;;;;2.95;1.23;;;;;;;11.14;66.68;96841.34;4938011;29;20411;-79
2021/05/27 06:22:11;;;;;;;1.30;1.20;;;;;;;11.16;66.60;96845.59;4936417;29;20055;-78
2021/05/27 06:24:38;;;;;;;2.15;1.10;;;;;;;11.20;66.89;96854.72;4936613;29;20063;-78
2021/05/27 06:27:05;;;;;;;1.40;1.30;;;;;;;11.20;66.71;96852.91;4937097;29;20070;-78
2021/05/27 06:29:33;;;;;;;1.33;1.20;;;;;;;11.24;67.25;96846.34;4937302;29;20056;-80
2021/05/27 06:32:00;;;;;;;1.27;1.17;;;;;;;11.29;67.28;96856.22;4936974;29;20103;-79
2021/05/27 06:34:27;;;;;;;3.72;1.45;;;;;;;11.33;66.60;96850.47;4936224;29;20059;-78
2021/05/27 06:36:54;;;;;;;1.95;1.50;;;;;;;11.36;66.30;96853.72;4937700;29;20503;-78
2021/05/27 06:39:21;;;;;;;2.60;1.65;;;;;;;11.34;66.58;96859.91;4937518;29;20422;-80
2021/05/27 06:41:48;;;;;;;1.42;1.20;;;;;;;11.36;66.96;96857.13;4936231;29;20107;-78
2021/05/27 06:44:15;;;;;;;2.03;1.52;;;;;;;11.37;66.71;96858.78;4936548;29;20062;-80
2021/05/27 06:46:43;;;;;;;2.53;2.10;;;;;;;11.38;66.20;96865.59;4936287;29;20051;-78
2021/05/27 06:49:10;;;;;;;2.63;1.55;;;;;;;11.37;66.11;96864.00;4936764;29;20434;-78
2021/05/27 06:51:37;;;;;;;2.75;1.48;;;;;;;11.38;66.86;96863.00;4938492;29;20047;-79
2021/05/27 06:54:04;;;;;;;1.45;1.30;;;;;;;11.41;66.71;96860.00;4949271;28;20063;-80
2021/05/27 06:56:32;;;;;;;1.92;1.38;;;;;;;11.44;66.25;96864.88;4952820;29;20058;-80
2021/05/27 06:58:59;;;;;;;1.77;1.67;;;;;;;11.46;65.87;96864.72;4944502;29;20051;-79
2021/05/27 07:01:26;;;;;;;1.50;1.40;;;;;;;11.48;66.08;96863.53;4937282;29;20052;-78
2021/05/27 07:03:54;;;;;;;4.13;1.67;;;;;;;11.50;65.64;96865.94;4937321;29;20052;-80
2021/05/27 07:06:22;;;;;;;1.77;1.13;;;;;;;11.55;65.91;96858.41;4949839;29;20052;-79
2021/05/27 07:08:49;;;;;;;2.55;1.40;;;;;;;11.60;65.25;96860.47;4945231;29;20052;-80
2021/05/27 07:11:16;;;;;;;3.45;1.40;;;;;;;11.60;64.69;96865.69;4937554;29;20047;-80
2021/05/27 07:13:43;;;;;;;5.25;2.20;;;;;;;11.60;65.43;96861.25;4936539;29;20119;-80
2021/05/27 07:16:10;;;;;;;2.10;1.35;;;;;;;11.62;65.04;96868.94;4937701;29;20062;-79
2021/05/27 07:18:37;;;;;;;3.97;1.55;;;;;;;11.65;64.74;96858.09;4935580;29;20422;-77
2021/05/27 07:21:05;;;;;;;2.75;1.60;;;;;;;11.71;64.25;96867.84;4936597;29;20051;-76
2021/05/27 07:23:32;;;;;;;1.98;1.60;;;;;;;11.77;63.66;96861.09;4937637;29;20528;-78
2021/05/27 07:26:01;;;;;;;1.35;1.15;;;;;;;11.81;63.62;96868.38;4935657;29;20052;-79
2021/05/27 07:28:28;;;;;;;1.10;1.00;;;;;;;11.83;62.99;96861.16;4935512;29;20052;-79
2021/05/27 07:30:56;;;;;;;2.72;1.55;;;;;;;11.85;62.59;96863.56;4935414;29;20498;-79
2021/05/27 07:33:23;;;;;;;2.05;1.95;;;;;;;11.85;62.63;96855.72;4937304;29;20063;-79
2021/05/27 07:35:50;;;;;;;3.20;1.58;;;;;;;11.85;62.31;96863.56;4936468;29;20529;-79
2021/05/27 07:38:18;;;;;;;71.35;4.90;;;;;;;11.91;62.01;96868.91;4936508;29;20055;-77
2021/05/27 07:40:46;;;;;;;7.70;2.40;;;;;;;12.02;62.23;96866.81;4935750;29;20048;-79
2021/05/27 07:43:13;;;;;;;2.90;1.38;;;;;;;12.08;61.04;96866.09;4938499;29;20052;-79
2021/05/27 07:45:41;;;;;;;9.50;6.18;;;;;;;12.11;60.68;96863.94;4941480;29;20062;-80
2021/05/27 07:48:09;;;;;;;4.07;3.03;;;;;;;12.12;60.34;96849.84;4941132;29;20055;-80
2021/05/27 07:50:36;;;;;;;4.40;3.67;;;;;;;12.15;61.02;96848.66;4936206;29;20079;-79
2021/05/27 07:53:05;;;;;;;2.53;1.88;;;;;;;12.23;61.98;96850.38;4935594;29;20051;-80
2021/05/27 07:55:34;;;;;;;2.78;1.67;;;;;;;12.31;61.78;96853.66;4936028;29;20054;-79
2021/05/27 07:58:01;;;;;;;3.70;1.10;;;;;;;12.35;60.31;96854.09;4934886;29;20052;-79
2021/05/27 08:00:28;;;;;;;2.78;1.10;;;;;;;12.38;60.55;96856.34;4935891;29;20051;-80
2021/05/27 08:02:55;;;;;;;3.35;1.20;;;;;;;12.43;59.70;96861.00;4935187;29;20043;-79
2021/05/27 08:05:22;;;;;;;2.05;1.25;;;;;;;12.54;59.23;96863.13;4934837;29;20051;-80
2021/05/27 08:07:49;;;;;;;18.00;12.20;;;;;;;12.63;59.20;96866.44;4935502;29;20052;-79
2021/05/27 08:10:16;;;;;;;3.50;1.40;;;;;;;12.71;58.67;96864.50;4934367;29;20058;-79
2021/05/27 08:12:44;;;;;;;1.55;1.05;;;;;;;12.78;58.17;96870.59;4934815;29;20086;-79
2021/05/27 08:15:12;;;;;;;1.48;1.00;;;;;;;12.84;57.34;96857.75;4935031;29;20099;-80
2021/05/27 08:17:39;;;;;;;2.80;1.05;;;;;;;12.85;57.16;96856.75;4935451;29;20047;-79
2021/05/27 08:20:09;;;;;;;2.67;1.00;;;;;;;12.84;57.71;96861.19;4935823;29;20466;-79
2021/05/27 08:22:36;;;;;;;4.45;1.98;;;;;;;12.89;57.50;96855.38;4935050;29;20058;-79
2021/05/27 08:25:04;;;;;;;4.55;3.50;;;;;;;12.94;58.58;96851.19;4935004;29;20140;-79
2021/05/27 08:27:31;;;;;;;7.55;4.35;;;;;;;13.03;57.69;96851.88;4935074;29;20055;-80
2021/05/27 08:30:00;;;;;;;1.70;1.60;;;;;;;13.08;55.79;96848.66;4935320;29;20131;-78
2021/05/27 08:32:27;;;;;;;1.25;0.95;;;;;;;13.11;56.78;96846.47;4934933;29;20052;-77
2021/05/27 08:34:56;;;;;;;2.47;0.73;;;;;;;13.16;55.88;96841.47;4934895;29;20051;-78
2021/05/27 08:37:23;;;;;;;1.13;0.95;;;;;;;13.17;57.00;96848.31;4935712;29;20047;-79
2021/05/27 08:39:50;;;;;;;1.95;1.30;;;;;;;13.14;56.16;96846.09;4934955;29;20051;-79
2021/05/27 08:42:17;;;;;;;1.52;1.08;;;;;;;13.14;56.15;96843.47;4934909;29;20051;-80
2021/05/27 08:44:47;;;;;;;0.60;0.60;;;;;;;13.19;55.33;96846.31;4935108;29;20058;-79
2021/05/27 08:47:17;;;;;;;1.65;0.90;;;;;;;13.26;54.95;96846.34;4936742;29;20055;-80
2021/05/27 08:49:46;;;;;;;2.88;1.85;;;;;;;13.31;54.88;96849.22;4936069;29;20052;-78
2021/05/27 08:52:13;;;;;;;19.70;12.02;;;;;;;13.34;55.61;96846.25;4935119;29;20055;-79
2021/05/27 08:54:40;;;;;;;8.63;6.93;;;;;;;13.35;54.77;96844.41;4935381;29;20056;-78
2021/05/27 08:57:08;;;;;;;2.40;1.40;;;;;;;13.41;54.49;96843.66;4935236;29;20061;-77
2021/05/27 08:59:35;;;;;;;2.97;1.70;;;;;;;13.51;54.31;96841.50;4934332;29;20506;-80
2021/05/27 09:02:04;;;;;;;2.67;1.70;;;;;;;13.60;55.19;96845.56;4936085;29;20054;-79
2021/05/27 09:04:32;;;;;;;4.43;1.20;;;;;;;13.73;54.70;96841.38;4977498;23;20055;-80
2021/05/27 09:07:00;;;;;;;1.52;0.98;;;;;;;13.82;54.14;96850.69;4973439;28;20054;-80
2021/05/27 09:09:51;;;;;;;2.07;1.43;;;;;;;13.92;54.32;96832.78;4974038;28;20074;-79
2021/05/27 09:12:24;;;;;;;2.47;1.40;;;;;;;14.00;54.14;96843.09;4974516;28;20047;-81
2021/05/27 09:14:51;;;;;;;2.67;1.65;;;;;;;14.01;54.22;96844.72;4972563;28;20493;-80
2021/05/27 09:17:18;;;;;;;2.38;1.10;;;;;;;14.03;54.18;96839.25;4973790;28;20065;-80
2021/05/27 09:20:17;;;;;;;1.55;1.20;;;;;;;14.13;53.15;96846.78;4974230;28;20410;-81
2021/05/27 09:22:46;;;;;;;2.65;1.30;;;;;;;14.25;53.37;96844.38;4976858;28;20047;-83
2021/05/27 09:25:25;;;;;;;7.57;3.00;;;;;;;14.38;53.40;96849.63;4980049;28;20074;-81
2021/05/27 09:27:53;;;;;;;1.77;1.23;;;;;;;14.47;52.62;96852.88;4978774;28;20113;-79
2021/05/27 09:30:22;;;;;;;1.42;1.33;;;;;;;14.46;53.11;96859.16;4978273;28;20047;-80
2021/05/27 09:33:05;;;;;;;3.97;2.53;;;;;;;14.43;53.31;96855.91;4976914;28;20477;-80
2021/05/27 09:35:33;;;;;;;2.92;1.23;;;;;;;14.41;52.63;96860.56;4977120;28;20054;-80
2021/05/27 09:38:01;;;;;;;4.68;2.17;;;;;;;14.43;52.47;96855.13;4979163;28;20191;-81
2021/05/27 09:40:37;;;;;;;2.42;1.55;;;;;;;14.48;52.67;96854.50;4958589;28;20091;-81
2021/05/27 09:43:05;;;;;;;1.92;1.40;;;;;;;14.54;52.81;96849.28;4958585;28;20055;-80
2021/05/27 09:45:34;;;;;;;2.63;1.35;;;;;;;14.61;51.91;96854.56;4958186;29;20051;-79
2021/05/27 09:48:20;;;;;;;1.45;1.27;;;;;;;14.71;51.89;96867.28;4958650;29;20136;-82
2021/05/27 09:50:49;;;;;;;3.28;0.93;;;;;;;14.80;51.59;96855.56;4958316;29;20051;-81
2021/05/27 09:53:18;;;;;;;4.45;1.50;;;;;;;14.91;49.89;96864.66;4958076;28;20047;-80
2021/05/27 09:55:46;;;;;;;0.80;0.80;;;;;;;14.96;49.96;96859.63;4972903;28;20058;-80
2021/05/27 09:58:14;;;;;;;1.80;0.98;;;;;;;14.98;51.09;96870.72;4976571;28;20394;-80
2021/05/27 10:00:44;;;;;;;1.80;0.88;;;;;;;15.01;51.03;96862.44;4977675;28;20046;-80
2021/05/27 10:03:33;;;;;;;1.92;1.15;;;;;;;15.02;48.54;96870.13;4976780;28;20046;-80
2021/05/27 10:06:07;;;;;;;4.22;2.20;;;;;;;14.99;49.59;96882.84;4977212;28;20113;-79
2021/05/27 10:08:53;;;;;;;10.13;5.25;;;;;;;14.90;49.10;96878.81;4977380;28;20055;-79
2021/05/27 10:11:24;;;;;;;13.20;5.38;;;;;;;14.82;49.18;96871.91;4971136;28;20043;-81
2021/05/27 10:13:52;;;;;;;4.95;2.38;;;;;;;14.79;49.41;96878.38;4975291;28;20047;-80
2021/05/27 10:16:22;;;;;;;5.70;2.10;;;;;;;14.79;49.81;96873.13;4978864;28;20047;-80
2021/05/27 10:18:51;;;;;;;2.20;1.70;;;;;;;14.83;49.98;96873.56;4977292;28;20046;-81
2021/05/27 10:21:19;;;;;;;1.85;1.17;;;;;;;14.84;49.68;96883.03;4977045;28;20057;-81
2021/05/27 10:23:50;;;;;;;2.47;1.17;;;;;;;14.80;50.70;96880.03;4976204;28;20134;-80
2021/05/27 10:26:17;;;;;;;1.27;1.17;;;;;;;14.76;50.08;96883.25;4975947;28;20050;-81
2021/05/27 10:29:05;;;;;;;1.73;1.30;;;;;;;14.71;50.44;96880.41;4977461;28;20057;-80
2021/05/27 10:31:37;;;;;;;3.45;2.15;;;;;;;14.70;50.40;96882.22;4981500;28;20152;-77
2021/05/27 10:34:05;;;;;;;4.25;2.30;;;;;;;14.69;50.51;96885.84;4975825;28;20055;-78
2021/05/27 10:36:44;;;;;;;2.13;1.88;;;;;;;14.70;50.80;96890.09;4975436;28;20064;-78
2021/05/27 10:39:30;;;;;;;5.35;3.10;;;;;;;14.74;51.29;96880.81;4975231;28;20055;-80
2021/05/27 10:41:58;;;;;;;7.10;3.97;;;;;;;14.75;50.30;96882.41;4974437;28;20171;-80
2021/05/27 10:44:25;;;;;;;7.65;4.28;;;;;;;14.77;49.32;96879.59;4975278;28;20081;-79
2021/05/27 10:47:17;;;;;;;3.40;1.80;;;;;;;14.79;48.33;96872.34;4977066;28;20054;-80
2021/05/27 10:49:56;;;;;;;1.20;1.10;;;;;;;14.83;48.17;96870.91;4975475;28;20055;-79
2021/05/27 10:52:44;;;;;;;3.97;1.33;;;;;;;14.90;50.34;96884.06;4974770;28;20061;-81
2021/05/27 10:55:56;;;;;;;6.88;2.85;;;;;;;15.03;48.62;96879.59;4974641;28;20070;-78
2021/05/27 10:59:02;;;;;;;2.72;1.83;;;;;;;15.07;48.24;96879.22;4970376;28;20077;-78
2021/05/27 11:01:54;;;;;;;3.88;2.05;;;;;;;15.04;47.74;96885.66;4974497;28;20505;-78
2021/05/27 11:04:33;;;;;;;6.90;2.20;;;;;;;14.97;47.61;96887.47;4973519;28;20051;-78
2021/05/27 11:07:28;;;;;;;5.40;2.20;;;;;;;14.89;48.54;96882.41;4970777;28;20047;-78
2021/05/27 11:09:57;;;;;;;2.88;1.40;;;;;;;14.86;49.07;96882.84;4964732;28;20524;-78
2021/05/27 11:12:29;;;;;;;4.88;1.80;;;;;;;14.83;47.44;96882.22;4973529;28;20147;-77
2021/05/27 11:15:16;;;;;;;5.40;1.83;;;;;;;14.81;49.08;96883.44;4972913;28;20051;-78
2021/05/27 11:18:00;;;;;;;4.78;1.95;;;;;;;14.80;48.75;96881.81;4974773;28;20131;-79
2021/05/27 11:20:29;;;;;;;5.38;2.08;;;;;;;14.79;48.69;96877.59;4974799;28;20058;-77
2021/05/27 11:23:08;;;;;;;5.13;1.50;;;;;;;14.79;48.70;96883.63;4974440;28;20070;-77
2021/05/27 11:25:38;;;;;;;4.82;1.50;;;;;;;14.80;48.37;96889.69;4975218;28;20051;-78
2021/05/27 11:28:26;;;;;;;15.07;6.65;;;;;;;14.73;49.50;96884.44;4975001;28;20401;-77
2021/05/27 11:30:56;;;;;;;14.05;7.10;;;;;;;14.65;49.16;96894.31;4972840;28;20428;-78
2021/05/27 11:33:32;;;;;;;13.60;6.60;;;;;;;14.55;49.61;96889.47;4973527;28;20055;-77
2021/05/27 11:36:05;;;;;;;11.25;4.47;;;;;;;14.46;50.01;96888.03;4974013;28;20050;-78
2021/05/27 11:38:33;;;;;;;14.48;7.63;;;;;;;14.36;49.48;96891.81;4974747;28;20066;-78
2021/05/27 11:41:04;;;;;;;12.18;6.15;;;;;;;14.29;49.85;96887.56;4976728;28;20051;-78
2021/05/27 11:43:33;;;;;;;8.60;5.03;;;;;;;14.24;50.53;96893.41;4972278;28;20399;-77
2021/05/27 11:46:04;;;;;;;4.95;2.60;;;;;;;14.20;49.98;96890.38;4973324;28;20073;-77
2021/05/27 11:48:35;;;;;;;3.37;1.60;;;;;;;14.22;50.46;96896.22;4974096;28;20139;-77
2021/05/27 11:51:06;;;;;;;3.45;1.38;;;;;;;14.23;50.15;96894.41;4973961;28;20331;-78
2021/05/27 11:53:49;;;;;;;3.33;1.00;;;;;;;14.21;51.33;96894.63;4973607;28;20054;-78
2021/05/27 11:56:37;;;;;;;;;;;;;;;14.25;51.72;96892.38;4973798;28;20050;-77